sensor_id;sensor_type;location;lat;lon;timestamp;temperature;humidity
43987;DHT22;29650;47.378;8.300;2022-12-19T00:00:04;-0.20;99.90
43987;DHT22;29650;47.378;8.300;2022-12-19T00:02:33;-0.10;99.90
43987;DHT22;29650;47.378;8.300;2022-12-19T00:04:59;0.00;99.90
43987;DHT22;29650;47.378;8.300;2022-12-19T00:07:26;0.10;99.90
43987;DHT22;29650;47.378;8.300;2022-12-19T00:09:53;0.00;99.90
43987;DHT22;29650;47.378;8.300;2022-12-19T00:12:20;0.00;99.90
43987;DHT22;29650;47.378;8.300;2022-12-19T00:14:47;0.00;99.90
43987;DHT22;29650;47.378;8.300;2022-12-19T00:17:14;0.10;99.90
43987;DHT22;29650;47.378;8.300;2022-12-19T00:19:42;0.10;99.90
43987;DHT22;29650;47.378;8.300;2022-12-19T00:22:09;0.20;99.90
43987;DHT22;29650;47.378;8.300;2022-12-19T00:24:36;0.20;99.90
43987;DHT22;29650;47.378;8.300;2022-12-19T00:27:03;0.30;99.90
43987;DHT22;29650;47.378;8.300;2022-12-19T00:29:30;0.40;99.90
43987;DHT22;29650;47.378;8.300;2022-12-19T00:31:57;0.40;99.90
43987;DHT22;29650;47.378;8.300;2022-12-19T00:34:24;0.20;99.90
43987;DHT22;29650;47.378;8.300;2022-12-19T00:36:52;0.20;99.90
43987;DHT22;29650;47.378;8.300;2022-12-19T00:39:20;0.10;99.90
43987;DHT22;29650;47.378;8.300;2022-12-19T00:41:47;0.20;99.90
43987;DHT22;29650;47.378;8.300;2022-12-19T00:44:14;0.20;99.90
43987;DHT22;29650;47.378;8.300;2022-12-19T00:46:41;0.20;99.90
43987;DHT22;29650;47.378;8.300;2022-12-19T00:49:08;0.30;99.90
43987;DHT22;29650;47.378;8.300;2022-12-19T00:51:36;0.30;99.90
43987;DHT22;29650;47.378;8.300;2022-12-19T00:54:04;0.20;99.90
43987;DHT22;29650;47.378;8.300;2022-12-19T00:56:33;0.30;99.90
43987;DHT22;29650;47.378;8.300;2022-12-19T00:59:00;0.30;99.90
43987;DHT22;29650;47.378;8.300;2022-12-19T01:01:28;0.30;99.90
43987;DHT22;29650;47.378;8.300;2022-12-19T01:03:57;0.20;99.90
43987;DHT22;29650;47.378;8.300;2022-12-19T01:06:24;0.30;99.90
43987;DHT22;29650;47.378;8.300;2022-12-19T01:08:51;0.30;99.90
43987;DHT22;29650;47.378;8.300;2022-12-19T01:11:19;0.30;99.90
43987;DHT22;29650;47.378;8.300;2022-12-19T01:14:07;0.30;99.90
43987;DHT22;29650;47.378;8.300;2022-12-19T01:16:33;0.20;99.90
43987;DHT22;29650;47.378;8.300;2022-12-19T01:19:00;0.30;99.90
43987;DHT22;29650;47.378;8.300;2022-12-19T01:21:27;0.30;99.90
43987;DHT22;29650;47.378;8.300;2022-12-19T01:23:54;0.30;99.90
43987;DHT22;29650;47.378;8.300;2022-12-19T01:26:22;0.20;99.90
43987;DHT22;29650;47.378;8.300;2022-12-19T01:28:49;0.20;99.90
43987;DHT22;29650;47.378;8.300;2022-12-19T01:31:16;0.10;99.90
43987;DHT22;29650;47.378;8.300;2022-12-19T01:33:43;0.10;99.90
43987;DHT22;29650;47.378;8.300;2022-12-19T01:36:10;0.30;99.90
43987;DHT22;29650;47.378;8.300;2022-12-19T01:38:37;0.30;99.90
43987;DHT22;29650;47.378;8.300;2022-12-19T01:41:04;0.30;99.90
43987;DHT22;29650;47.378;8.300;2022-12-19T01:43:53;0.40;99.90
43987;DHT22;29650;47.378;8.300;2022-12-19T01:46:25;0.40;99.90
43987;DHT22;29650;47.378;8.300;2022-12-19T01:48:52;0.40;99.90
43987;DHT22;29650;47.378;8.300;2022-12-19T01:51:22;0.40;99.90
43987;DHT22;29650;47.378;8.300;2022-12-19T01:53:51;0.40;99.90
43987;DHT22;29650;47.378;8.300;2022-12-19T01:56:22;0.50;99.90
43987;DHT22;29650;47.378;8.300;2022-12-19T01:58:53;0.60;99.90
43987;DHT22;29650;47.378;8.300;2022-12-19T02:01:20;0.40;99.90
43987;DHT22;29650;47.378;8.300;2022-12-19T02:03:47;0.40;99.90
43987;DHT22;29650;47.378;8.300;2022-12-19T02:06:16;0.50;99.90
43987;DHT22;29650;47.378;8.300;2022-12-19T02:08:46;0.50;99.90
43987;DHT22;29650;47.378;8.300;2022-12-19T02:11:14;0.60;99.90
43987;DHT22;29650;47.378;8.300;2022-12-19T02:13:41;0.50;99.90
43987;DHT22;29650;47.378;8.300;2022-12-19T02:16:18;0.50;99.90
43987;DHT22;29650;47.378;8.300;2022-12-19T02:18:53;0.50;99.90
43987;DHT22;29650;47.378;8.300;2022-12-19T02:21:35;0.50;99.90
43987;DHT22;29650;47.378;8.300;2022-12-19T02:24:26;0.50;99.90
43987;DHT22;29650;47.378;8.300;2022-12-19T02:30:10;0.60;99.90
43987;DHT22;29650;47.378;8.300;2022-12-19T02:32:47;0.50;99.90
43987;DHT22;29650;47.378;8.300;2022-12-19T02:35:25;0.50;99.90
43987;DHT22;29650;47.378;8.300;2022-12-19T02:38:00;0.50;99.90
43987;DHT22;29650;47.378;8.300;2022-12-19T02:40:34;0.40;99.90
43987;DHT22;29650;47.378;8.300;2022-12-19T02:43:05;0.50;99.90
43987;DHT22;29650;47.378;8.300;2022-12-19T02:45:36;0.60;99.90
43987;DHT22;29650;47.378;8.300;2022-12-19T02:48:05;0.60;99.90
43987;DHT22;29650;47.378;8.300;2022-12-19T02:50:38;0.50;99.90
43987;DHT22;29650;47.378;8.300;2022-12-19T02:53:07;0.40;99.90
43987;DHT22;29650;47.378;8.300;2022-12-19T02:55:41;0.50;99.90
43987;DHT22;29650;47.378;8.300;2022-12-19T02:58:36;0.50;99.90
43987;DHT22;29650;47.378;8.300;2022-12-19T03:01:13;0.50;99.90
43987;DHT22;29650;47.378;8.300;2022-12-19T03:03:54;0.50;99.90
43987;DHT22;29650;47.378;8.300;2022-12-19T03:06:25;0.70;99.90
43987;DHT22;29650;47.378;8.300;2022-12-19T03:09:00;0.50;99.90
43987;DHT22;29650;47.378;8.300;2022-12-19T03:11:32;0.60;99.90
43987;DHT22;29650;47.378;8.300;2022-12-19T03:14:02;0.60;99.90
43987;DHT22;29650;47.378;8.300;2022-12-19T03:16:33;0.70;99.90
43987;DHT22;29650;47.378;8.300;2022-12-19T03:19:02;0.80;99.90
43987;DHT22;29650;47.378;8.300;2022-12-19T03:21:33;0.70;99.90
43987;DHT22;29650;47.378;8.300;2022-12-19T03:24:01;0.80;99.90
43987;DHT22;29650;47.378;8.300;2022-12-19T03:26:32;0.80;99.90
43987;DHT22;29650;47.378;8.300;2022-12-19T03:29:06;0.90;99.90
43987;DHT22;29650;47.378;8.300;2022-12-19T03:31:35;0.80;99.90
43987;DHT22;29650;47.378;8.300;2022-12-19T03:34:09;0.60;99.90
43987;DHT22;29650;47.378;8.300;2022-12-19T03:36:39;0.60;99.90
43987;DHT22;29650;47.378;8.300;2022-12-19T03:39:08;0.70;99.90
43987;DHT22;29650;47.378;8.300;2022-12-19T03:41:37;0.70;99.90
43987;DHT22;29650;47.378;8.300;2022-12-19T03:44:24;0.80;99.90
43987;DHT22;29650;47.378;8.300;2022-12-19T03:46:59;0.70;99.90
43987;DHT22;29650;47.378;8.300;2022-12-19T03:49:28;0.70;99.90
43987;DHT22;29650;47.378;8.300;2022-12-19T03:51:59;0.80;99.90
43987;DHT22;29650;47.378;8.300;2022-12-19T03:54:33;0.80;99.90
43987;DHT22;29650;47.378;8.300;2022-12-19T03:57:06;0.80;99.90
43987;DHT22;29650;47.378;8.300;2022-12-19T03:59:38;0.80;99.90
43987;DHT22;29650;47.378;8.300;2022-12-19T04:02:07;0.90;99.90
43987;DHT22;29650;47.378;8.300;2022-12-19T04:04:38;0.90;99.90
43987;DHT22;29650;47.378;8.300;2022-12-19T04:07:09;0.90;99.90
43987;DHT22;29650;47.378;8.300;2022-12-19T04:09:39;1.00;99.90
43987;DHT22;29650;47.378;8.300;2022-12-19T04:12:09;0.90;99.90
43987;DHT22;29650;47.378;8.300;2022-12-19T04:14:40;0.80;99.90
43987;DHT22;29650;47.378;8.300;2022-12-19T04:17:14;0.90;99.90
43987;DHT22;29650;47.378;8.300;2022-12-19T04:19:53;0.90;99.90
43987;DHT22;29650;47.378;8.300;2022-12-19T04:22:24;0.90;99.90
43987;DHT22;29650;47.378;8.300;2022-12-19T04:24:53;1.00;99.90
43987;DHT22;29650;47.378;8.300;2022-12-19T04:27:22;0.90;99.90
43987;DHT22;29650;47.378;8.300;2022-12-19T04:29:51;0.90;99.90
43987;DHT22;29650;47.378;8.300;2022-12-19T04:32:20;1.00;99.90
43987;DHT22;29650;47.378;8.300;2022-12-19T04:34:49;1.00;99.90
43987;DHT22;29650;47.378;8.300;2022-12-19T04:37:16;1.10;99.90
43987;DHT22;29650;47.378;8.300;2022-12-19T04:39:43;1.10;99.90
43987;DHT22;29650;47.378;8.300;2022-12-19T04:42:10;1.00;99.90
43987;DHT22;29650;47.378;8.300;2022-12-19T04:44:37;1.10;99.90
43987;DHT22;29650;47.378;8.300;2022-12-19T04:47:04;1.10;99.90
43987;DHT22;29650;47.378;8.300;2022-12-19T04:49:31;1.00;99.90
43987;DHT22;29650;47.378;8.300;2022-12-19T04:51:59;1.00;99.90
43987;DHT22;29650;47.378;8.300;2022-12-19T04:54:26;1.00;99.90
43987;DHT22;29650;47.378;8.300;2022-12-19T04:56:53;0.90;99.90
43987;DHT22;29650;47.378;8.300;2022-12-19T04:59:20;1.00;99.90
43987;DHT22;29650;47.378;8.300;2022-12-19T05:01:47;1.00;99.90
43987;DHT22;29650;47.378;8.300;2022-12-19T05:04:14;0.90;99.90
43987;DHT22;29650;47.378;8.300;2022-12-19T05:06:41;0.90;99.90
43987;DHT22;29650;47.378;8.300;2022-12-19T05:09:10;0.90;99.90
43987;DHT22;29650;47.378;8.300;2022-12-19T05:11:37;0.80;99.90
43987;DHT22;29650;47.378;8.300;2022-12-19T05:14:04;0.90;99.90
43987;DHT22;29650;47.378;8.300;2022-12-19T05:16:31;0.90;99.90
43987;DHT22;29650;47.378;8.300;2022-12-19T05:18:58;1.00;99.90
43987;DHT22;29650;47.378;8.300;2022-12-19T05:21:26;1.10;99.90
43987;DHT22;29650;47.378;8.300;2022-12-19T05:23:53;1.10;99.90
43987;DHT22;29650;47.378;8.300;2022-12-19T05:26:21;1.10;99.90
43987;DHT22;29650;47.378;8.300;2022-12-19T05:28:48;1.10;99.90
43987;DHT22;29650;47.378;8.300;2022-12-19T05:31:17;1.00;99.90
43987;DHT22;29650;47.378;8.300;2022-12-19T05:33:46;1.10;99.90
43987;DHT22;29650;47.378;8.300;2022-12-19T05:36:14;1.00;99.90
43987;DHT22;29650;47.378;8.300;2022-12-19T05:38:42;1.10;99.90
43987;DHT22;29650;47.378;8.300;2022-12-19T05:41:10;1.10;99.90
43987;DHT22;29650;47.378;8.300;2022-12-19T05:43:39;1.10;99.90
43987;DHT22;29650;47.378;8.300;2022-12-19T05:46:06;1.10;99.90
43987;DHT22;29650;47.378;8.300;2022-12-19T05:48:34;1.00;99.90
43987;DHT22;29650;47.378;8.300;2022-12-19T05:51:01;0.90;99.90
43987;DHT22;29650;47.378;8.300;2022-12-19T05:53:28;1.00;99.90
43987;DHT22;29650;47.378;8.300;2022-12-19T05:56:02;1.10;99.90
43987;DHT22;29650;47.378;8.300;2022-12-19T05:58:29;1.20;99.90
43987;DHT22;29650;47.378;8.300;2022-12-19T06:01:02;1.20;99.90
43987;DHT22;29650;47.378;8.300;2022-12-19T06:03:29;1.10;99.90
43987;DHT22;29650;47.378;8.300;2022-12-19T06:05:56;1.10;99.90
43987;DHT22;29650;47.378;8.300;2022-12-19T06:08:23;1.20;99.90
43987;DHT22;29650;47.378;8.300;2022-12-19T06:10:50;1.10;99.90
43987;DHT22;29650;47.378;8.300;2022-12-19T06:13:17;1.10;99.90
43987;DHT22;29650;47.378;8.300;2022-12-19T06:15:44;1.10;99.90
43987;DHT22;29650;47.378;8.300;2022-12-19T06:18:12;1.20;99.90
43987;DHT22;29650;47.378;8.300;2022-12-19T06:20:39;1.10;99.90
43987;DHT22;29650;47.378;8.300;2022-12-19T06:23:06;1.20;99.90
43987;DHT22;29650;47.378;8.300;2022-12-19T06:25:33;1.20;99.90
43987;DHT22;29650;47.378;8.300;2022-12-19T06:28:00;1.20;99.90
43987;DHT22;29650;47.378;8.300;2022-12-19T06:30:27;1.30;99.90
43987;DHT22;29650;47.378;8.300;2022-12-19T06:32:54;1.20;99.90
43987;DHT22;29650;47.378;8.300;2022-12-19T06:35:23;1.10;99.90
43987;DHT22;29650;47.378;8.300;2022-12-19T06:37:50;1.20;99.90
43987;DHT22;29650;47.378;8.300;2022-12-19T06:40:16;1.20;99.90
43987;DHT22;29650;47.378;8.300;2022-12-19T06:42:57;1.20;99.90
43987;DHT22;29650;47.378;8.300;2022-12-19T06:45:24;1.10;99.90
43987;DHT22;29650;47.378;8.300;2022-12-19T06:47:51;1.10;99.90
43987;DHT22;29650;47.378;8.300;2022-12-19T06:50:18;1.10;99.90
43987;DHT22;29650;47.378;8.300;2022-12-19T06:52:46;1.10;99.90
43987;DHT22;29650;47.378;8.300;2022-12-19T06:55:14;1.20;99.90
43987;DHT22;29650;47.378;8.300;2022-12-19T06:57:40;1.20;99.90
43987;DHT22;29650;47.378;8.300;2022-12-19T07:00:11;1.20;99.90
43987;DHT22;29650;47.378;8.300;2022-12-19T07:02:41;1.20;99.90
43987;DHT22;29650;47.378;8.300;2022-12-19T07:05:10;1.30;99.90
43987;DHT22;29650;47.378;8.300;2022-12-19T07:07:38;1.30;99.90
43987;DHT22;29650;47.378;8.300;2022-12-19T07:10:08;1.30;99.90
43987;DHT22;29650;47.378;8.300;2022-12-19T07:12:35;1.20;99.90
43987;DHT22;29650;47.378;8.300;2022-12-19T07:15:02;1.20;99.90
43987;DHT22;29650;47.378;8.300;2022-12-19T07:17:29;1.20;99.90
43987;DHT22;29650;47.378;8.300;2022-12-19T07:19:57;1.10;99.90
43987;DHT22;29650;47.378;8.300;2022-12-19T07:22:28;1.00;99.90
43987;DHT22;29650;47.378;8.300;2022-12-19T07:24:56;1.10;99.90
43987;DHT22;29650;47.378;8.300;2022-12-19T07:27:26;1.20;99.90
43987;DHT22;29650;47.378;8.300;2022-12-19T07:29:53;1.10;99.90
43987;DHT22;29650;47.378;8.300;2022-12-19T07:32:21;1.10;99.90
43987;DHT22;29650;47.378;8.300;2022-12-19T07:34:48;1.10;99.90
43987;DHT22;29650;47.378;8.300;2022-12-19T07:37:15;1.10;99.90
43987;DHT22;29650;47.378;8.300;2022-12-19T07:39:42;1.20;99.90
43987;DHT22;29650;47.378;8.300;2022-12-19T07:42:08;1.90;99.90
43987;DHT22;29650;47.378;8.300;2022-12-19T07:44:37;1.10;99.90
43987;DHT22;29650;47.378;8.300;2022-12-19T07:47:04;1.20;99.90
43987;DHT22;29650;47.378;8.300;2022-12-19T07:49:32;1.10;99.90
43987;DHT22;29650;47.378;8.300;2022-12-19T07:51:59;1.10;99.90
43987;DHT22;29650;47.378;8.300;2022-12-19T07:54:26;1.00;99.90
43987;DHT22;29650;47.378;8.300;2022-12-19T07:56:53;1.10;99.90
43987;DHT22;29650;47.378;8.300;2022-12-19T07:59:20;1.00;99.90
43987;DHT22;29650;47.378;8.300;2022-12-19T08:01:48;1.10;99.90
43987;DHT22;29650;47.378;8.300;2022-12-19T08:04:15;1.00;99.90
43987;DHT22;29650;47.378;8.300;2022-12-19T08:06:42;1.00;99.90
43987;DHT22;29650;47.378;8.300;2022-12-19T08:09:10;1.00;99.90
43987;DHT22;29650;47.378;8.300;2022-12-19T08:11:37;0.90;99.90
43987;DHT22;29650;47.378;8.300;2022-12-19T08:14:04;1.00;99.90
43987;DHT22;29650;47.378;8.300;2022-12-19T08:16:31;1.00;99.90
43987;DHT22;29650;47.378;8.300;2022-12-19T08:18:59;1.00;99.90
43987;DHT22;29650;47.378;8.300;2022-12-19T08:21:26;1.20;99.90
43987;DHT22;29650;47.378;8.300;2022-12-19T08:23:53;1.30;99.90
43987;DHT22;29650;47.378;8.300;2022-12-19T08:26:21;1.30;99.90
43987;DHT22;29650;47.378;8.300;2022-12-19T08:28:50;1.20;99.90
43987;DHT22;29650;47.378;8.300;2022-12-19T08:31:18;1.20;99.90
43987;DHT22;29650;47.378;8.300;2022-12-19T08:33:46;1.20;99.90
43987;DHT22;29650;47.378;8.300;2022-12-19T08:36:15;1.30;99.90
43987;DHT22;29650;47.378;8.300;2022-12-19T08:38:43;1.40;99.90
43987;DHT22;29650;47.378;8.300;2022-12-19T08:41:10;1.40;99.90
43987;DHT22;29650;47.378;8.300;2022-12-19T08:43:37;1.40;99.90
43987;DHT22;29650;47.378;8.300;2022-12-19T08:46:05;1.40;99.90
43987;DHT22;29650;47.378;8.300;2022-12-19T08:48:32;1.50;99.90
43987;DHT22;29650;47.378;8.300;2022-12-19T08:51:01;1.40;99.90
43987;DHT22;29650;47.378;8.300;2022-12-19T08:53:31;1.50;99.90
43987;DHT22;29650;47.378;8.300;2022-12-19T08:56:00;1.50;99.90
43987;DHT22;29650;47.378;8.300;2022-12-19T08:58:28;1.40;99.90
43987;DHT22;29650;47.378;8.300;2022-12-19T09:00:57;1.30;99.90
43987;DHT22;29650;47.378;8.300;2022-12-19T09:03:24;1.30;99.90
43987;DHT22;29650;47.378;8.300;2022-12-19T09:05:54;1.30;99.90
43987;DHT22;29650;47.378;8.300;2022-12-19T09:08:23;1.30;99.90
43987;DHT22;29650;47.378;8.300;2022-12-19T09:10:56;1.30;99.90
43987;DHT22;29650;47.378;8.300;2022-12-19T09:13:24;1.20;99.90
43987;DHT22;29650;47.378;8.300;2022-12-19T09:15:58;1.20;99.90
43987;DHT22;29650;47.378;8.300;2022-12-19T09:18:26;1.30;99.90
43987;DHT22;29650;47.378;8.300;2022-12-19T09:20:53;1.40;99.90
43987;DHT22;29650;47.378;8.300;2022-12-19T09:23:20;1.50;99.90
43987;DHT22;29650;47.378;8.300;2022-12-19T09:25:47;1.50;99.90
43987;DHT22;29650;47.378;8.300;2022-12-19T09:28:16;1.50;99.90
43987;DHT22;29650;47.378;8.300;2022-12-19T09:30:43;1.60;99.90
43987;DHT22;29650;47.378;8.300;2022-12-19T09:33:10;1.60;99.90
43987;DHT22;29650;47.378;8.300;2022-12-19T09:35:37;1.60;99.90
43987;DHT22;29650;47.378;8.300;2022-12-19T09:38:04;1.70;99.90
43987;DHT22;29650;47.378;8.300;2022-12-19T09:40:44;1.70;99.90
43987;DHT22;29650;47.378;8.300;2022-12-19T09:43:24;1.90;99.90
43987;DHT22;29650;47.378;8.300;2022-12-19T09:46:01;1.90;99.90
43987;DHT22;29650;47.378;8.300;2022-12-19T09:48:30;2.00;99.90
43987;DHT22;29650;47.378;8.300;2022-12-19T09:50:59;2.10;99.90
43987;DHT22;29650;47.378;8.300;2022-12-19T09:53:32;2.20;99.90
43987;DHT22;29650;47.378;8.300;2022-12-19T09:56:02;2.30;99.90
43987;DHT22;29650;47.378;8.300;2022-12-19T09:58:36;2.20;99.90
43987;DHT22;29650;47.378;8.300;2022-12-19T10:01:11;2.30;99.90
43987;DHT22;29650;47.378;8.300;2022-12-19T10:03:44;2.20;99.90
43987;DHT22;29650;47.378;8.300;2022-12-19T10:06:16;2.30;99.90
43987;DHT22;29650;47.378;8.300;2022-12-19T10:08:44;2.30;99.90
43987;DHT22;29650;47.378;8.300;2022-12-19T10:11:27;2.40;99.90
43987;DHT22;29650;47.378;8.300;2022-12-19T10:14:14;2.40;99.90
43987;DHT22;29650;47.378;8.300;2022-12-19T10:16:52;2.30;99.90
43987;DHT22;29650;47.378;8.300;2022-12-19T10:19:28;2.40;99.90
43987;DHT22;29650;47.378;8.300;2022-12-19T10:22:02;2.40;99.90
43987;DHT22;29650;47.378;8.300;2022-12-19T10:24:48;2.40;99.90
43987;DHT22;29650;47.378;8.300;2022-12-19T10:27:26;2.40;99.90
43987;DHT22;29650;47.378;8.300;2022-12-19T10:30:09;2.40;99.90
43987;DHT22;29650;47.378;8.300;2022-12-19T10:32:53;2.40;99.90
43987;DHT22;29650;47.378;8.300;2022-12-19T10:35:33;2.40;99.90
43987;DHT22;29650;47.378;8.300;2022-12-19T10:38:15;2.40;99.90
43987;DHT22;29650;47.378;8.300;2022-12-19T10:40:50;2.40;99.90
43987;DHT22;29650;47.378;8.300;2022-12-19T10:43:25;2.50;99.90
43987;DHT22;29650;47.378;8.300;2022-12-19T10:45:58;2.50;99.90
43987;DHT22;29650;47.378;8.300;2022-12-19T10:48:27;2.60;99.90
43987;DHT22;29650;47.378;8.300;2022-12-19T10:50:54;2.50;99.90
43987;DHT22;29650;47.378;8.300;2022-12-19T10:53:26;2.60;99.90
43987;DHT22;29650;47.378;8.300;2022-12-19T10:55:54;2.50;99.90
43987;DHT22;29650;47.378;8.300;2022-12-19T10:58:27;2.60;99.90
43987;DHT22;29650;47.378;8.300;2022-12-19T11:01:04;2.60;99.90
43987;DHT22;29650;47.378;8.300;2022-12-19T11:03:31;2.60;99.90
43987;DHT22;29650;47.378;8.300;2022-12-19T11:05:59;2.70;99.90
43987;DHT22;29650;47.378;8.300;2022-12-19T11:08:29;3.20;99.90
43987;DHT22;29650;47.378;8.300;2022-12-19T11:10:58;3.10;99.90
43987;DHT22;29650;47.378;8.300;2022-12-19T11:13:40;3.00;99.90
43987;DHT22;29650;47.378;8.300;2022-12-19T11:16:09;3.00;99.90
43987;DHT22;29650;47.378;8.300;2022-12-19T11:18:38;3.00;99.90
43987;DHT22;29650;47.378;8.300;2022-12-19T11:21:13;3.10;99.90
43987;DHT22;29650;47.378;8.300;2022-12-19T11:23:49;3.20;99.90
43987;DHT22;29650;47.378;8.300;2022-12-19T11:26:31;3.10;99.90
43987;DHT22;29650;47.378;8.300;2022-12-19T11:29:04;3.10;99.90
43987;DHT22;29650;47.378;8.300;2022-12-19T11:31:44;3.10;99.90
43987;DHT22;29650;47.378;8.300;2022-12-19T11:34:18;3.10;99.90
43987;DHT22;29650;47.378;8.300;2022-12-19T11:36:51;3.50;99.90
43987;DHT22;29650;47.378;8.300;2022-12-19T11:39:24;3.30;99.90
43987;DHT22;29650;47.378;8.300;2022-12-19T11:42:00;3.20;99.90
43987;DHT22;29650;47.378;8.300;2022-12-19T11:44:34;3.10;99.90
43987;DHT22;29650;47.378;8.300;2022-12-19T11:47:12;3.10;99.90
43987;DHT22;29650;47.378;8.300;2022-12-19T11:49:47;3.10;99.90
43987;DHT22;29650;47.378;8.300;2022-12-19T11:52:22;3.20;99.90
43987;DHT22;29650;47.378;8.300;2022-12-19T11:54:56;3.50;99.90
43987;DHT22;29650;47.378;8.300;2022-12-19T11:57:24;3.40;99.90
43987;DHT22;29650;47.378;8.300;2022-12-19T11:59:53;3.30;99.90
43987;DHT22;29650;47.378;8.300;2022-12-19T12:08:36;3.70;99.90
43987;DHT22;29650;47.378;8.300;2022-12-19T12:11:18;3.80;99.90
43987;DHT22;29650;47.378;8.300;2022-12-19T12:14:06;3.80;99.90
43987;DHT22;29650;47.378;8.300;2022-12-19T12:16:38;3.80;99.90
43987;DHT22;29650;47.378;8.300;2022-12-19T12:19:13;3.80;99.90
43987;DHT22;29650;47.378;8.300;2022-12-19T12:21:51;3.70;99.90
43987;DHT22;29650;47.378;8.300;2022-12-19T12:24:33;3.60;99.90
43987;DHT22;29650;47.378;8.300;2022-12-19T12:27:14;3.50;99.90
43987;DHT22;29650;47.378;8.300;2022-12-19T12:29:50;3.50;99.90
43987;DHT22;29650;47.378;8.300;2022-12-19T12:32:25;3.50;99.90
43987;DHT22;29650;47.378;8.300;2022-12-19T12:35:05;3.60;99.90
43987;DHT22;29650;47.378;8.300;2022-12-19T12:37:49;3.50;99.90
43987;DHT22;29650;47.378;8.300;2022-12-19T12:40:38;3.70;99.90
43987;DHT22;29650;47.378;8.300;2022-12-19T12:43:16;3.70;99.90
43987;DHT22;29650;47.378;8.300;2022-12-19T12:45:48;3.80;99.90
43987;DHT22;29650;47.378;8.300;2022-12-19T12:48:21;3.80;99.90
43987;DHT22;29650;47.378;8.300;2022-12-19T12:50:50;3.70;99.90
43987;DHT22;29650;47.378;8.300;2022-12-19T12:53:22;3.70;99.90
43987;DHT22;29650;47.378;8.300;2022-12-19T12:55:51;3.80;99.90
43987;DHT22;29650;47.378;8.300;2022-12-19T12:58:43;3.90;99.90
43987;DHT22;29650;47.378;8.300;2022-12-19T13:01:13;3.80;99.90
43987;DHT22;29650;47.378;8.300;2022-12-19T13:03:42;3.80;99.90
43987;DHT22;29650;47.378;8.300;2022-12-19T13:06:25;3.70;99.90
43987;DHT22;29650;47.378;8.300;2022-12-19T13:09:02;3.70;99.90
43987;DHT22;29650;47.378;8.300;2022-12-19T13:11:37;3.70;99.90
43987;DHT22;29650;47.378;8.300;2022-12-19T13:14:44;3.80;99.90
43987;DHT22;29650;47.378;8.300;2022-12-19T13:17:16;3.90;99.90
43987;DHT22;29650;47.378;8.300;2022-12-19T13:19:53;4.00;99.90
43987;DHT22;29650;47.378;8.300;2022-12-19T13:25:49;3.90;99.90
43987;DHT22;29650;47.378;8.300;2022-12-19T13:28:43;3.90;99.90
43987;DHT22;29650;47.378;8.300;2022-12-19T13:31:18;3.80;99.90
43987;DHT22;29650;47.378;8.300;2022-12-19T13:36:51;4.10;99.90
43987;DHT22;29650;47.378;8.300;2022-12-19T13:39:30;4.10;99.90
43987;DHT22;29650;47.378;8.300;2022-12-19T13:42:10;4.10;99.90
43987;DHT22;29650;47.378;8.300;2022-12-19T13:44:57;4.00;99.90
43987;DHT22;29650;47.378;8.300;2022-12-19T13:47:25;3.90;99.90
43987;DHT22;29650;47.378;8.300;2022-12-19T13:49:56;3.90;99.90
43987;DHT22;29650;47.378;8.300;2022-12-19T13:52:23;3.90;99.90
43987;DHT22;29650;47.378;8.300;2022-12-19T13:54:54;3.80;99.90
43987;DHT22;29650;47.378;8.300;2022-12-19T13:57:25;3.90;99.90
43987;DHT22;29650;47.378;8.300;2022-12-19T13:59:52;4.00;99.90
43987;DHT22;29650;47.378;8.300;2022-12-19T14:02:22;4.10;99.90
43987;DHT22;29650;47.378;8.300;2022-12-19T14:04:51;4.20;99.90
43987;DHT22;29650;47.378;8.300;2022-12-19T14:07:21;4.20;99.90
43987;DHT22;29650;47.378;8.300;2022-12-19T14:09:51;4.20;99.90
43987;DHT22;29650;47.378;8.300;2022-12-19T14:12:24;4.10;99.90
43987;DHT22;29650;47.378;8.300;2022-12-19T14:15:27;4.00;99.90
43987;DHT22;29650;47.378;8.300;2022-12-19T14:17:55;4.10;99.90
43987;DHT22;29650;47.378;8.300;2022-12-19T14:20:25;4.00;99.90
43987;DHT22;29650;47.378;8.300;2022-12-19T14:22:56;4.00;99.90
43987;DHT22;29650;47.378;8.300;2022-12-19T14:25:24;4.20;99.90
43987;DHT22;29650;47.378;8.300;2022-12-19T14:27:56;4.10;99.90
43987;DHT22;29650;47.378;8.300;2022-12-19T14:30:29;4.00;99.90
43987;DHT22;29650;47.378;8.300;2022-12-19T14:33:02;4.10;99.90
43987;DHT22;29650;47.378;8.300;2022-12-19T14:35:32;4.10;99.90
43987;DHT22;29650;47.378;8.300;2022-12-19T14:38:01;3.90;99.90
43987;DHT22;29650;47.378;8.300;2022-12-19T14:40:31;4.00;99.90
43987;DHT22;29650;47.378;8.300;2022-12-19T14:43:02;3.90;99.90
43987;DHT22;29650;47.378;8.300;2022-12-19T14:45:47;3.80;99.90
43987;DHT22;29650;47.378;8.300;2022-12-19T14:48:30;3.80;99.90
43987;DHT22;29650;47.378;8.300;2022-12-19T14:51:10;3.80;99.90
43987;DHT22;29650;47.378;8.300;2022-12-19T14:53:38;3.70;99.90
43987;DHT22;29650;47.378;8.300;2022-12-19T14:56:08;3.60;99.90
43987;DHT22;29650;47.378;8.300;2022-12-19T14:58:38;3.70;99.90
43987;DHT22;29650;47.378;8.300;2022-12-19T15:01:19;3.70;99.90
43987;DHT22;29650;47.378;8.300;2022-12-19T15:03:51;3.70;99.90
43987;DHT22;29650;47.378;8.300;2022-12-19T15:06:24;3.60;99.90
43987;DHT22;29650;47.378;8.300;2022-12-19T15:08:53;3.50;99.90
43987;DHT22;29650;47.378;8.300;2022-12-19T15:11:26;3.60;99.90
43987;DHT22;29650;47.378;8.300;2022-12-19T15:14:12;3.60;99.90
43987;DHT22;29650;47.378;8.300;2022-12-19T15:16:39;3.60;99.90
43987;DHT22;29650;47.378;8.300;2022-12-19T15:19:10;3.60;99.90
43987;DHT22;29650;47.378;8.300;2022-12-19T15:21:38;3.40;99.90
43987;DHT22;29650;47.378;8.300;2022-12-19T15:24:05;3.20;99.90
43987;DHT22;29650;47.378;8.300;2022-12-19T15:26:34;3.20;99.90
43987;DHT22;29650;47.378;8.300;2022-12-19T15:29:05;3.00;99.90
43987;DHT22;29650;47.378;8.300;2022-12-19T15:31:35;2.90;99.90
43987;DHT22;29650;47.378;8.300;2022-12-19T15:34:11;3.00;99.90
43987;DHT22;29650;47.378;8.300;2022-12-19T15:36:43;2.90;99.90
43987;DHT22;29650;47.378;8.300;2022-12-19T15:39:10;3.00;99.90
43987;DHT22;29650;47.378;8.300;2022-12-19T15:41:37;3.00;99.90
43987;DHT22;29650;47.378;8.300;2022-12-19T15:44:07;3.00;99.90
43987;DHT22;29650;47.378;8.300;2022-12-19T15:46:36;2.90;99.90
43987;DHT22;29650;47.378;8.300;2022-12-19T15:49:03;2.90;99.90
43987;DHT22;29650;47.378;8.300;2022-12-19T15:51:30;2.80;99.90
43987;DHT22;29650;47.378;8.300;2022-12-19T15:53:57;2.70;99.90
43987;DHT22;29650;47.378;8.300;2022-12-19T15:56:26;2.60;99.90
43987;DHT22;29650;47.378;8.300;2022-12-19T15:58:55;2.50;99.90
43987;DHT22;29650;47.378;8.300;2022-12-19T16:01:24;2.60;99.90
43987;DHT22;29650;47.378;8.300;2022-12-19T16:03:55;2.70;99.90
43987;DHT22;29650;47.378;8.300;2022-12-19T16:06:22;2.50;99.90
43987;DHT22;29650;47.378;8.300;2022-12-19T16:08:49;2.50;99.90
43987;DHT22;29650;47.378;8.300;2022-12-19T16:11:18;2.60;99.90
43987;DHT22;29650;47.378;8.300;2022-12-19T16:13:45;2.60;99.90
43987;DHT22;29650;47.378;8.300;2022-12-19T16:16:14;2.50;99.90
43987;DHT22;29650;47.378;8.300;2022-12-19T16:18:41;2.50;99.90
43987;DHT22;29650;47.378;8.300;2022-12-19T16:21:17;2.50;99.90
43987;DHT22;29650;47.378;8.300;2022-12-19T16:23:44;2.40;99.90